Flight Track Log - Related Links

Times and Time Zones

All times are in EDT time to prevent confusion due to time zone crossing. See the EJA831 flight status page for this flight to view local times or setup timezone preferences in your user account.


Time Position Orientation Groundspeed Altitude Reporting Facility
EDT Latitude Longitude Course Direction KTS MPH feet Rate Location/Type
Tue 07:13:58 PM 40.8769 -81.4453 270° West 185 213 4,700  Level Cleveland Center
Tue 07:14:58 PM 40.8389 -81.4917 223° Southwest 193 222 7,600 2,100 Climbing Cleveland Center
Tue 07:15:58 PM 40.8383 -81.5767 270° West 212 244 8,900 2,650 Climbing Cleveland Center
Tue 07:16:58 PM 40.8436 -81.6783 274° West 259 298 12,900 3,700 Climbing Cleveland Center
Tue 07:17:58 PM 40.8467 -81.7853 272° West 288 331 16,300 -3,950 Climbing Cleveland Center
Tue 07:18:58 PM 40.8497 -81.8978 272° West 303 349 5,000 2,800 Descending Cleveland Center
Tue 07:19:00 PM 40.8834 -82.1313 270° West  Level FlightAware Approximate
Tue 07:19:58 PM 40.8522 -82.0242 272° West 313 360 21,900  Level Cleveland Center
Tue 07:20:58 PM 40.8547 -82.1561 271° West 341 392 22,000 50 Climbing Cleveland Center
Tue 07:21:58 PM 40.8611 -82.2936 274° West 369 425 22,000  Level Cleveland Center
Tue 07:22:58 PM 40.8631 -82.4308 271° West 379 436 22,000 -350 Level Cleveland Center
Tue 07:23:58 PM 40.8669 -82.5711 272° West 379 436 21,300 -1,400 Descending Cleveland Center
Tue 07:24:58 PM 40.8750 -82.7031 275° West 379 436 19,200 -2,050 Descending Cleveland Center
Tue 07:25:58 PM 40.8850 -82.8297 276° West 361 415 17,200 -2,100 Descending Cleveland Center
Tue 07:26:58 PM 40.8950 -82.9592 276° West 354 407 15,000 -2,050 Descending Cleveland Center
Tue 07:27:58 PM 40.9031 -83.0667 276° West 349 402 13,100 -2,050 Descending Cleveland Center
Tue 07:28:58 PM 40.9147 -83.1989 277° West 344 396 10,900 -2,150 Descending Cleveland Center
Tue 07:29:58 PM 40.9244 -83.3147 276° West 329 379 8,800 -2,050 Descending Cleveland Center
Tue 07:30:58 PM 40.9306 -83.4086 275° West 286 329 6,800 -2,000 Descending Cleveland Center
Tue 07:31:58 PM 40.9533 -83.5003 288° West 265 305 4,800 -1,000 Descending Cleveland Center
Tue 07:32:58 PM 40.9633 -83.5914 278° West 265 305 4,800 100 Level Cleveland Center
Tue 07:33:58 PM 40.9817 -83.6886 284° West 265 305 5,000 100 Climbing Cleveland Center
Tue 07:34:58 PM 40.9997 -83.7858 284° West 265 305 5,000  Level Cleveland Center
Tue 07:35:58 PM 41.0181 -83.8831 284° West 265 305 5,000  Level Cleveland Center
Tue 07:37:00 PM 41.0090 -83.7739 96° East  Level FlightAware Approximate
Tue 07:44:00 PM 41.0000 -83.6667 96° East  Level FlightAware Approximate
Tue 07:45:00 PM 41.0120 -83.6686 96° East  Level Estimated

Login

Don't have an account? Register now (free) for customized features, flight alerts, and more!